UAE603 OPKC-OMDB
Flight info
| Callsign | UAE603 |
|---|---|
| Flight time | 1h 46m |
| Altitude | 40000 |
| Route | MELOM A454 PASOV B540 KUPMA/N0358F240 B540 MIVEK P574 IMPED |
| Aircraft | A332/H-SDE3GHIJ2J3J5M1RVWXY/LB2D1 |
Departure
| Time | 2026-04-26 20:09 |
|---|---|
| Airport | Jinnah International Airport (OPKC) |
Arrival
| Time | 2026-04-26 21:56 |
|---|---|
| Airport | Dubai International Airport (OMDB) |
| Time | Latitude | Longitude | Altitude | Speed | Heading |
|---|---|---|---|---|---|
| 2026-04-26 19:45 | 24.90320 | 67.16904 | 105 ft | 0 kts | 164° |
| 2026-04-26 20:02 | 24.90338 | 67.16898 | 105 ft | 4 kts | 160° |
| 2026-04-26 20:02 | 24.90355 | 67.16891 | 105 ft | 4 kts | 154° |
| 2026-04-26 20:03 | 24.90385 | 67.16870 | 104 ft | 4 kts | 134° |
| 2026-04-26 20:03 | 24.90398 | 67.16847 | 105 ft | 4 kts | 90° |
| 2026-04-26 20:03 | 24.90397 | 67.16835 | 105 ft | 1 kts | 75° |
| 2026-04-26 20:03 | 24.90396 | 67.16834 | 105 ft | 0 kts | 75° |
| 2026-04-26 20:05 | 24.90397 | 67.16837 | 105 ft | 2 kts | 75° |
| 2026-04-26 20:05 | 24.90403 | 67.16859 | 105 ft | 4 kts | 75° |
| 2026-04-26 20:05 | 24.90418 | 67.16920 | 105 ft | 11 kts | 75° |
| 2026-04-26 20:06 | 24.90445 | 67.17008 | 105 ft | 13 kts | 57° |
| 2026-04-26 20:06 | 24.90529 | 67.17038 | 105 ft | 14 kts | 6° |
| 2026-04-26 20:06 | 24.90584 | 67.17114 | 106 ft | 14 kts | 74° |
| 2026-04-26 20:06 | 24.90612 | 67.17228 | 106 ft | 17 kts | 75° |
| 2026-04-26 20:07 | 24.90647 | 67.17360 | 106 ft | 19 kts | 68° |
| 2026-04-26 20:07 | 24.90743 | 67.17462 | 107 ft | 20 kts | 30° |
| 2026-04-26 20:07 | 24.90853 | 67.17481 | 110 ft | 13 kts | 324° |
| 2026-04-26 20:07 | 24.90855 | 67.17405 | 111 ft | 1 kts | 256° |
| 2026-04-26 20:09 | 24.90808 | 67.17212 | 109 ft | 62 kts | 254° |
| 2026-04-26 20:09 | 24.90625 | 67.16491 | 107 ft | 132 kts | 254° |
| 2026-04-26 20:09 | 24.90325 | 67.15307 | 239 ft | 182 kts | 255° |
| 2026-04-26 20:09 | 24.89980 | 67.13959 | 1144 ft | 180 kts | 255° |
| 2026-04-26 20:10 | 24.89445 | 67.12686 | 2017 ft | 196 kts | 234° |
| 2026-04-26 20:10 | 24.88440 | 67.11533 | 2518 ft | 220 kts | 229° |
| 2026-04-26 20:10 | 24.87307 | 67.10324 | 3248 ft | 231 kts | 227° |
| 2026-04-26 20:10 | 24.86159 | 67.09079 | 4095 ft | 235 kts | 227° |
| 2026-04-26 20:11 | 24.84994 | 67.07779 | 4886 ft | 242 kts | 227° |
| 2026-04-26 20:11 | 24.83807 | 67.06425 | 5679 ft | 249 kts | 227° |
| 2026-04-26 20:11 | 24.82596 | 67.05033 | 6451 ft | 255 kts | 227° |
| 2026-04-26 20:12 | 24.80100 | 67.02139 | 8079 ft | 265 kts | 227° |
| 2026-04-26 20:12 | 24.78834 | 67.00651 | 8924 ft | 268 kts | 229° |
| 2026-04-26 20:12 | 24.77939 | 66.98862 | 9518 ft | 274 kts | 258° |
| 2026-04-26 20:12 | 24.77910 | 66.96698 | 9732 ft | 293 kts | 277° |
| 2026-04-26 20:13 | 24.78224 | 66.94460 | 9766 ft | 298 kts | 280° |
| 2026-04-26 20:13 | 24.78560 | 66.92208 | 9771 ft | 299 kts | 279° |
| 2026-04-26 20:13 | 24.78868 | 66.89941 | 9775 ft | 303 kts | 278° |
| 2026-04-26 20:13 | 24.79154 | 66.87598 | 9905 ft | 316 kts | 278° |
| 2026-04-26 20:14 | 24.79438 | 66.85126 | 10284 ft | 334 kts | 277° |
| 2026-04-26 20:14 | 24.79782 | 66.82574 | 10970 ft | 340 kts | 283° |
| 2026-04-26 20:14 | 24.80565 | 66.80115 | 11759 ft | 343 kts | 298° |
| 2026-04-26 20:14 | 24.81945 | 66.77960 | 12566 ft | 347 kts | 312° |
| 2026-04-26 20:15 | 24.83656 | 66.76058 | 13351 ft | 352 kts | 316° |
| 2026-04-26 20:15 | 24.85449 | 66.74193 | 14087 ft | 357 kts | 317° |
| 2026-04-26 20:15 | 24.87264 | 66.72310 | 14827 ft | 361 kts | 316° |
| 2026-04-26 20:15 | 24.89093 | 66.70403 | 15577 ft | 364 kts | 316° |
| 2026-04-26 20:16 | 24.90933 | 66.68472 | 16326 ft | 367 kts | 315° |
| 2026-04-26 20:16 | 24.92789 | 66.66519 | 17102 ft | 371 kts | 315° |
| 2026-04-26 20:16 | 24.94660 | 66.64547 | 17860 ft | 374 kts | 315° |
| 2026-04-26 20:16 | 24.96558 | 66.62543 | 18473 ft | 380 kts | 315° |
| 2026-04-26 20:17 | 24.98476 | 66.60518 | 19111 ft | 383 kts | 315° |
| 2026-04-26 20:17 | 25.00405 | 66.58480 | 19777 ft | 386 kts | 315° |
| 2026-04-26 20:17 | 25.02349 | 66.56423 | 20448 ft | 388 kts | 314° |
| 2026-04-26 20:17 | 25.03600 | 66.55013 | 20920 ft | 388 kts | 310° |
| 2026-04-26 20:18 | 25.05682 | 66.51803 | 21734 ft | 391 kts | 296° |
| 2026-04-26 20:18 | 25.06732 | 66.49033 | 22365 ft | 393 kts | 287° |
| 2026-04-26 20:18 | 25.07518 | 66.46146 | 23027 ft | 394 kts | 284° |
| 2026-04-26 20:18 | 25.08195 | 66.43204 | 23578 ft | 398 kts | 282° |
| 2026-04-26 20:19 | 25.08826 | 66.40217 | 24062 ft | 401 kts | 282° |
| 2026-04-26 20:19 | 25.09448 | 66.37205 | 24549 ft | 405 kts | 282° |
| 2026-04-26 20:19 | 25.10081 | 66.34167 | 25041 ft | 407 kts | 282° |
| 2026-04-26 20:19 | 25.10730 | 66.31113 | 25561 ft | 410 kts | 282° |
| 2026-04-26 20:20 | 25.11393 | 66.28046 | 26024 ft | 413 kts | 282° |
| 2026-04-26 20:20 | 25.12069 | 66.24956 | 26495 ft | 415 kts | 283° |
| 2026-04-26 20:20 | 25.12750 | 66.21860 | 27042 ft | 416 kts | 283° |
| 2026-04-26 20:20 | 25.13436 | 66.18750 | 27520 ft | 419 kts | 283° |
| 2026-04-26 20:21 | 25.14128 | 66.15614 | 27973 ft | 422 kts | 283° |
| 2026-04-26 20:21 | 25.14822 | 66.12460 | 28435 ft | 425 kts | 283° |
| 2026-04-26 20:21 | 25.15516 | 66.09293 | 28987 ft | 425 kts | 283° |
| 2026-04-26 20:21 | 25.16212 | 66.06111 | 29484 ft | 428 kts | 283° |
| 2026-04-26 20:22 | 25.16911 | 66.02916 | 29913 ft | 430 kts | 283° |
| 2026-04-26 20:22 | 25.17617 | 65.99690 | 30255 ft | 434 kts | 283° |
| 2026-04-26 20:22 | 25.18327 | 65.96443 | 30594 ft | 438 kts | 283° |
| 2026-04-26 20:22 | 25.19042 | 65.93164 | 30961 ft | 440 kts | 283° |
| 2026-04-26 20:23 | 25.19760 | 65.89868 | 31294 ft | 444 kts | 283° |
| 2026-04-26 20:23 | 25.20484 | 65.86542 | 31646 ft | 447 kts | 283° |
| 2026-04-26 20:23 | 25.21194 | 65.83261 | 32100 ft | 445 kts | 283° |
| 2026-04-26 20:23 | 25.21917 | 65.79940 | 32603 ft | 444 kts | 283° |
| 2026-04-26 20:24 | 25.22638 | 65.76629 | 33130 ft | 443 kts | 283° |
| 2026-04-26 20:24 | 25.23355 | 65.73329 | 33646 ft | 441 kts | 283° |
| 2026-04-26 20:24 | 25.24067 | 65.70041 | 34092 ft | 440 kts | 283° |
| 2026-04-26 20:24 | 25.24776 | 65.66763 | 34570 ft | 437 kts | 283° |
| 2026-04-26 20:25 | 25.25479 | 65.63509 | 35059 ft | 434 kts | 283° |
| 2026-04-26 20:25 | 25.25950 | 65.61327 | 35390 ft | 432 kts | 283° |
| 2026-04-26 20:25 | 25.26866 | 65.57074 | 36010 ft | 428 kts | 284° |
| 2026-04-26 20:25 | 25.27552 | 65.53886 | 36439 ft | 426 kts | 284° |
| 2026-04-26 20:26 | 25.28235 | 65.50707 | 36839 ft | 424 kts | 284° |
| 2026-04-26 20:26 | 25.28915 | 65.47539 | 37239 ft | 423 kts | 284° |
| 2026-04-26 20:26 | 25.29592 | 65.44381 | 37657 ft | 421 kts | 285° |
| 2026-04-26 20:26 | 25.30265 | 65.41239 | 38072 ft | 419 kts | 285° |
| 2026-04-26 20:27 | 25.30935 | 65.38109 | 38492 ft | 416 kts | 285° |
| 2026-04-26 20:27 | 25.31599 | 65.35006 | 38829 ft | 415 kts | 285° |
| 2026-04-26 20:27 | 25.32261 | 65.31904 | 39094 ft | 415 kts | 285° |
| 2026-04-26 20:27 | 25.32923 | 65.28800 | 39322 ft | 415 kts | 285° |
| 2026-04-26 20:28 | 25.33583 | 65.25701 | 39605 ft | 414 kts | 285° |
| 2026-04-26 20:28 | 25.34242 | 65.22600 | 39749 ft | 418 kts | 284° |
| 2026-04-26 20:28 | 25.34916 | 65.19447 | 39743 ft | 425 kts | 285° |
| 2026-04-26 20:29 | 25.36276 | 65.13043 | 39749 ft | 428 kts | 284° |
| 2026-04-26 20:29 | 25.37628 | 65.06639 | 39751 ft | 427 kts | 284° |
| 2026-04-26 20:30 | 25.38976 | 65.00245 | 39754 ft | 427 kts | 284° |
| 2026-04-26 20:30 | 25.40324 | 64.93847 | 39756 ft | 427 kts | 284° |
| 2026-04-26 20:31 | 25.41394 | 64.87439 | 39754 ft | 428 kts | 276° |
| 2026-04-26 20:31 | 25.40928 | 64.80855 | 39752 ft | 434 kts | 260° |
| 2026-04-26 20:32 | 25.39323 | 64.74398 | 39754 ft | 437 kts | 256° |
| 2026-04-26 20:32 | 25.37503 | 64.67987 | 39755 ft | 437 kts | 256° |
| 2026-04-26 20:33 | 25.35965 | 64.62615 | 39752 ft | 437 kts | 256° |
| 2026-04-26 20:33 | 25.33865 | 64.55159 | 39749 ft | 437 kts | 256° |
| 2026-04-26 20:34 | 25.32364 | 64.49785 | 39749 ft | 437 kts | 256° |
| 2026-04-26 20:34 | 25.30573 | 64.43366 | 39749 ft | 437 kts | 256° |
| 2026-04-26 20:35 | 25.28780 | 64.36955 | 39752 ft | 437 kts | 256° |
| 2026-04-26 20:35 | 25.26982 | 64.30542 | 39749 ft | 437 kts | 256° |
| 2026-04-26 20:36 | 25.25180 | 64.24132 | 39746 ft | 437 kts | 256° |
| 2026-04-26 20:36 | 25.23378 | 64.17730 | 39746 ft | 437 kts | 256° |
| 2026-04-26 20:37 | 25.21584 | 64.11367 | 39746 ft | 437 kts | 256° |
| 2026-04-26 20:37 | 25.19776 | 64.04970 | 39746 ft | 437 kts | 256° |
| 2026-04-26 20:38 | 25.17966 | 63.98574 | 39753 ft | 436 kts | 257° |
| 2026-04-26 20:38 | 25.16155 | 63.92187 | 39747 ft | 436 kts | 256° |
| 2026-04-26 20:39 | 25.14341 | 63.85801 | 39744 ft | 436 kts | 256° |
| 2026-04-26 20:39 | 25.12525 | 63.79420 | 39749 ft | 436 kts | 256° |
| 2026-04-26 20:40 | 25.10706 | 63.73040 | 39738 ft | 436 kts | 257° |
| 2026-04-26 20:40 | 25.08885 | 63.66664 | 39740 ft | 436 kts | 257° |
| 2026-04-26 20:41 | 25.07062 | 63.60292 | 39742 ft | 435 kts | 256° |
| 2026-04-26 20:41 | 25.05237 | 63.53925 | 39742 ft | 435 kts | 256° |
| 2026-04-26 20:42 | 25.03409 | 63.47556 | 39744 ft | 435 kts | 256° |
| 2026-04-26 20:42 | 25.01578 | 63.41191 | 39740 ft | 435 kts | 257° |
| 2026-04-26 20:43 | 24.99744 | 63.34826 | 39741 ft | 436 kts | 256° |
| 2026-04-26 20:43 | 24.97908 | 63.28466 | 39740 ft | 436 kts | 256° |
| 2026-04-26 20:44 | 24.96069 | 63.22109 | 39739 ft | 436 kts | 256° |
| 2026-04-26 20:44 | 24.94227 | 63.15750 | 39737 ft | 436 kts | 256° |
| 2026-04-26 20:45 | 24.92382 | 63.09393 | 39744 ft | 435 kts | 256° |
| 2026-04-26 20:45 | 24.90537 | 63.03044 | 39742 ft | 435 kts | 256° |
| 2026-04-26 20:46 | 24.88689 | 62.96699 | 39740 ft | 435 kts | 256° |
| 2026-04-26 20:46 | 24.86840 | 62.90360 | 39743 ft | 435 kts | 256° |
| 2026-04-26 20:47 | 24.84986 | 62.84018 | 39735 ft | 435 kts | 256° |
| 2026-04-26 20:47 | 24.83131 | 62.77680 | 39736 ft | 435 kts | 256° |
| 2026-04-26 20:48 | 24.81273 | 62.71346 | 39736 ft | 435 kts | 256° |
| 2026-04-26 20:48 | 24.79425 | 62.65053 | 39738 ft | 435 kts | 256° |
| 2026-04-26 20:49 | 24.77562 | 62.58725 | 39743 ft | 435 kts | 257° |
| 2026-04-26 20:49 | 24.75693 | 62.52381 | 39734 ft | 437 kts | 256° |
| 2026-04-26 20:50 | 24.73816 | 62.46023 | 39744 ft | 437 kts | 256° |
| 2026-04-26 20:50 | 24.71934 | 62.39663 | 39744 ft | 437 kts | 256° |
| 2026-04-26 20:51 | 24.70048 | 62.33301 | 39745 ft | 437 kts | 256° |
| 2026-04-26 20:51 | 24.68162 | 62.26947 | 39747 ft | 437 kts | 256° |
| 2026-04-26 20:52 | 24.66272 | 62.20591 | 39741 ft | 437 kts | 256° |
| 2026-04-26 20:52 | 24.64380 | 62.14237 | 39741 ft | 438 kts | 256° |
| 2026-04-26 20:53 | 24.62483 | 62.07881 | 39742 ft | 438 kts | 256° |
| 2026-04-26 20:53 | 24.60583 | 62.01524 | 39742 ft | 437 kts | 256° |
| 2026-04-26 20:54 | 24.58682 | 61.95175 | 39743 ft | 438 kts | 256° |
| 2026-04-26 20:54 | 24.56778 | 61.88824 | 39736 ft | 437 kts | 256° |
| 2026-04-26 20:55 | 24.54874 | 61.82486 | 39748 ft | 437 kts | 256° |
| 2026-04-26 20:55 | 24.52968 | 61.76151 | 39746 ft | 437 kts | 256° |
| 2026-04-26 20:56 | 24.51059 | 61.69819 | 39736 ft | 437 kts | 256° |
| 2026-04-26 20:56 | 24.49161 | 61.63531 | 39752 ft | 437 kts | 256° |
| 2026-04-26 20:57 | 24.47246 | 61.57202 | 39755 ft | 437 kts | 256° |
| 2026-04-26 20:57 | 24.45328 | 61.50869 | 39741 ft | 437 kts | 256° |
| 2026-04-26 20:58 | 24.43408 | 61.44543 | 39742 ft | 437 kts | 256° |
| 2026-04-26 20:58 | 24.41486 | 61.38221 | 39751 ft | 437 kts | 256° |
| 2026-04-26 20:59 | 24.39736 | 61.31856 | 39744 ft | 434 kts | 260° |
| 2026-04-26 20:59 | 24.38339 | 61.25430 | 39748 ft | 432 kts | 261° |
| 2026-04-26 21:00 | 24.37006 | 61.18999 | 39749 ft | 432 kts | 262° |
| 2026-04-26 21:00 | 24.35681 | 61.12573 | 39749 ft | 432 kts | 262° |
| 2026-04-26 21:01 | 24.34345 | 61.06146 | 39751 ft | 432 kts | 261° |
| 2026-04-26 21:01 | 24.33002 | 60.99723 | 39746 ft | 432 kts | 261° |
| 2026-04-26 21:02 | 24.31656 | 60.93306 | 39743 ft | 432 kts | 261° |
| 2026-04-26 21:02 | 24.30307 | 60.86891 | 39748 ft | 432 kts | 261° |
| 2026-04-26 21:03 | 24.28955 | 60.80474 | 39746 ft | 432 kts | 261° |
| 2026-04-26 21:03 | 24.27602 | 60.74060 | 39746 ft | 432 kts | 261° |
| 2026-04-26 21:04 | 24.26246 | 60.67653 | 39753 ft | 431 kts | 261° |
| 2026-04-26 21:04 | 24.24889 | 60.61251 | 39752 ft | 431 kts | 261° |
| 2026-04-26 21:05 | 24.23529 | 60.54851 | 39759 ft | 431 kts | 261° |
| 2026-04-26 21:05 | 24.22166 | 60.48450 | 39758 ft | 431 kts | 261° |
| 2026-04-26 21:06 | 24.20811 | 60.42102 | 39759 ft | 431 kts | 261° |
| 2026-04-26 21:06 | 24.19447 | 60.35726 | 39762 ft | 430 kts | 261° |
| 2026-04-26 21:07 | 24.18082 | 60.29354 | 39757 ft | 430 kts | 261° |
| 2026-04-26 21:07 | 24.16714 | 60.22984 | 39757 ft | 430 kts | 261° |
| 2026-04-26 21:08 | 24.15344 | 60.16616 | 39759 ft | 430 kts | 261° |
| 2026-04-26 21:08 | 24.13969 | 60.10247 | 39763 ft | 430 kts | 261° |
| 2026-04-26 21:09 | 24.12593 | 60.03880 | 39764 ft | 430 kts | 261° |
| 2026-04-26 21:09 | 24.11215 | 59.97516 | 39759 ft | 430 kts | 261° |
| 2026-04-26 21:10 | 24.09833 | 59.91151 | 39771 ft | 430 kts | 261° |
| 2026-04-26 21:10 | 24.08448 | 59.84787 | 39764 ft | 430 kts | 261° |
| 2026-04-26 21:11 | 24.07061 | 59.78423 | 39769 ft | 430 kts | 261° |
| 2026-04-26 21:11 | 24.05671 | 59.72060 | 39762 ft | 430 kts | 261° |
| 2026-04-26 21:12 | 24.04277 | 59.65694 | 39768 ft | 430 kts | 261° |
| 2026-04-26 21:12 | 24.02882 | 59.59335 | 39765 ft | 430 kts | 261° |
| 2026-04-26 21:13 | 24.01485 | 59.52981 | 39768 ft | 429 kts | 261° |
| 2026-04-26 21:13 | 24.00086 | 59.46633 | 39772 ft | 429 kts | 261° |
| 2026-04-26 21:14 | 23.98685 | 59.40285 | 39770 ft | 429 kts | 261° |
| 2026-04-26 21:14 | 23.97283 | 59.33947 | 39774 ft | 429 kts | 261° |
| 2026-04-26 21:15 | 23.95886 | 59.27648 | 39772 ft | 429 kts | 261° |
| 2026-04-26 21:15 | 23.94480 | 59.21319 | 39775 ft | 428 kts | 261° |
| 2026-04-26 21:16 | 23.93625 | 59.14944 | 39771 ft | 421 kts | 273° |
| 2026-04-26 21:16 | 23.94430 | 59.08681 | 39771 ft | 415 kts | 288° |
| 2026-04-26 21:17 | 23.96213 | 59.02680 | 39771 ft | 415 kts | 291° |
| 2026-04-26 21:17 | 23.98164 | 58.96736 | 39771 ft | 415 kts | 291° |
| 2026-04-26 21:18 | 24.00115 | 58.90788 | 39772 ft | 415 kts | 291° |
| 2026-04-26 21:18 | 24.02033 | 58.84839 | 39770 ft | 414 kts | 290° |
| 2026-04-26 21:19 | 24.03930 | 58.78902 | 39776 ft | 413 kts | 290° |
| 2026-04-26 21:19 | 24.05820 | 58.72967 | 39771 ft | 413 kts | 290° |
| 2026-04-26 21:20 | 24.07710 | 58.67027 | 39774 ft | 413 kts | 290° |
| 2026-04-26 21:20 | 24.09280 | 58.62089 | 39770 ft | 413 kts | 290° |
| 2026-04-26 21:21 | 24.11167 | 58.56147 | 39776 ft | 413 kts | 290° |
| 2026-04-26 21:21 | 24.13052 | 58.50203 | 39773 ft | 413 kts | 290° |
| 2026-04-26 21:22 | 24.14934 | 58.44257 | 39776 ft | 413 kts | 290° |
| 2026-04-26 21:22 | 24.16813 | 58.38310 | 39782 ft | 413 kts | 290° |
| 2026-04-26 21:23 | 24.19619 | 58.29417 | 39779 ft | 412 kts | 290° |
| 2026-04-26 21:23 | 24.21485 | 58.23489 | 39782 ft | 412 kts | 290° |
| 2026-04-26 21:24 | 24.23350 | 58.17559 | 39777 ft | 412 kts | 290° |
| 2026-04-26 21:24 | 24.25212 | 58.11628 | 39777 ft | 412 kts | 290° |
| 2026-04-26 21:25 | 24.27072 | 58.05693 | 39779 ft | 412 kts | 290° |
| 2026-04-26 21:25 | 24.28929 | 57.99760 | 39782 ft | 412 kts | 290° |
| 2026-04-26 21:26 | 24.30835 | 57.93845 | 39785 ft | 411 kts | 292° |
| 2026-04-26 21:26 | 24.32909 | 57.87998 | 39782 ft | 411 kts | 292° |
| 2026-04-26 21:27 | 24.34981 | 57.82163 | 39775 ft | 410 kts | 292° |
| 2026-04-26 21:27 | 24.37044 | 57.76330 | 39783 ft | 410 kts | 292° |
| 2026-04-26 21:28 | 24.39093 | 57.70524 | 39528 ft | 402 kts | 292° |
| 2026-04-26 21:28 | 24.40092 | 57.67687 | 39298 ft | 395 kts | 292° |
| 2026-04-26 21:28 | 24.41077 | 57.64889 | 39072 ft | 391 kts | 292° |
| 2026-04-26 21:29 | 24.42056 | 57.62107 | 38840 ft | 391 kts | 292° |
| 2026-04-26 21:29 | 24.43035 | 57.59323 | 38616 ft | 392 kts | 292° |
| 2026-04-26 21:29 | 24.44016 | 57.56534 | 38385 ft | 392 kts | 291° |
| 2026-04-26 21:29 | 24.44991 | 57.53756 | 38145 ft | 387 kts | 291° |
| 2026-04-26 21:30 | 24.45952 | 57.51017 | 37819 ft | 382 kts | 291° |
| 2026-04-26 21:30 | 24.46904 | 57.48301 | 37427 ft | 380 kts | 291° |
| 2026-04-26 21:30 | 24.47850 | 57.45605 | 37038 ft | 377 kts | 291° |
| 2026-04-26 21:30 | 24.48790 | 57.42923 | 36641 ft | 375 kts | 291° |
| 2026-04-26 21:31 | 24.49723 | 57.40256 | 36250 ft | 374 kts | 291° |
| 2026-04-26 21:31 | 24.50640 | 57.37633 | 35849 ft | 372 kts | 291° |
| 2026-04-26 21:31 | 24.51578 | 57.34948 | 35407 ft | 371 kts | 291° |
| 2026-04-26 21:31 | 24.52503 | 57.32299 | 34949 ft | 372 kts | 291° |
| 2026-04-26 21:32 | 24.53428 | 57.29647 | 34437 ft | 373 kts | 291° |
| 2026-04-26 21:32 | 24.54349 | 57.27007 | 33860 ft | 377 kts | 291° |
| 2026-04-26 21:32 | 24.55303 | 57.24274 | 33183 ft | 380 kts | 291° |
| 2026-04-26 21:32 | 24.56249 | 57.21560 | 32571 ft | 382 kts | 291° |
| 2026-04-26 21:33 | 24.57201 | 57.18826 | 31918 ft | 385 kts | 290° |
| 2026-04-26 21:33 | 24.58165 | 57.16057 | 31272 ft | 391 kts | 290° |
| 2026-04-26 21:33 | 24.59144 | 57.13237 | 30610 ft | 402 kts | 289° |
| 2026-04-26 21:33 | 24.60146 | 57.10351 | 30107 ft | 416 kts | 289° |
| 2026-04-26 21:34 | 24.61180 | 57.07371 | 29535 ft | 419 kts | 289° |
| 2026-04-26 21:34 | 24.62216 | 57.04388 | 28952 ft | 415 kts | 289° |
| 2026-04-26 21:34 | 24.63239 | 57.01440 | 28400 ft | 411 kts | 289° |
| 2026-04-26 21:34 | 24.64252 | 56.98520 | 27847 ft | 407 kts | 289° |
| 2026-04-26 21:35 | 24.65256 | 56.95623 | 27297 ft | 403 kts | 289° |
| 2026-04-26 21:35 | 24.66248 | 56.92755 | 26769 ft | 399 kts | 289° |
| 2026-04-26 21:35 | 24.67230 | 56.89916 | 26209 ft | 396 kts | 289° |
| 2026-04-26 21:35 | 24.68203 | 56.87096 | 25662 ft | 393 kts | 289° |
| 2026-04-26 21:36 | 24.69171 | 56.84293 | 25113 ft | 390 kts | 289° |
| 2026-04-26 21:36 | 24.70129 | 56.81514 | 24579 ft | 388 kts | 289° |
| 2026-04-26 21:36 | 24.71083 | 56.78748 | 24032 ft | 386 kts | 289° |
| 2026-04-26 21:36 | 24.72030 | 56.75996 | 23504 ft | 384 kts | 289° |
| 2026-04-26 21:37 | 24.72972 | 56.73262 | 22912 ft | 381 kts | 289° |
| 2026-04-26 21:37 | 24.73906 | 56.70550 | 22366 ft | 377 kts | 288° |
| 2026-04-26 21:37 | 24.74827 | 56.67870 | 21837 ft | 373 kts | 288° |
| 2026-04-26 21:37 | 24.75740 | 56.65211 | 21307 ft | 370 kts | 288° |
| 2026-04-26 21:38 | 24.76646 | 56.62573 | 20802 ft | 368 kts | 288° |
| 2026-04-26 21:38 | 24.77547 | 56.59945 | 20283 ft | 366 kts | 288° |
| 2026-04-26 21:38 | 24.78445 | 56.57327 | 19771 ft | 365 kts | 288° |
| 2026-04-26 21:38 | 24.79340 | 56.54718 | 19250 ft | 363 kts | 288° |
| 2026-04-26 21:39 | 24.80227 | 56.52131 | 18753 ft | 360 kts | 288° |
| 2026-04-26 21:39 | 24.81106 | 56.49561 | 18240 ft | 357 kts | 287° |
| 2026-04-26 21:39 | 24.81977 | 56.47013 | 17681 ft | 355 kts | 288° |
| 2026-04-26 21:39 | 24.82842 | 56.44477 | 17149 ft | 353 kts | 288° |
| 2026-04-26 21:40 | 24.83704 | 56.41953 | 16645 ft | 351 kts | 288° |
| 2026-04-26 21:40 | 24.84560 | 56.39442 | 16135 ft | 350 kts | 288° |
| 2026-04-26 21:40 | 24.85415 | 56.36936 | 15632 ft | 348 kts | 288° |
| 2026-04-26 21:40 | 24.86265 | 56.34445 | 15108 ft | 347 kts | 289° |
| 2026-04-26 21:41 | 24.87109 | 56.31969 | 14593 ft | 344 kts | 289° |
| 2026-04-26 21:41 | 24.87945 | 56.29511 | 14156 ft | 341 kts | 289° |
| 2026-04-26 21:41 | 24.88776 | 56.27068 | 13761 ft | 341 kts | 289° |
| 2026-04-26 21:41 | 24.89607 | 56.24628 | 13257 ft | 340 kts | 289° |
| 2026-04-26 21:42 | 24.90434 | 56.22195 | 12753 ft | 338 kts | 289° |
| 2026-04-26 21:42 | 24.91243 | 56.19814 | 12278 ft | 334 kts | 289° |
| 2026-04-26 21:42 | 24.92054 | 56.17428 | 11798 ft | 331 kts | 289° |
| 2026-04-26 21:42 | 24.92854 | 56.15063 | 11312 ft | 328 kts | 289° |
| 2026-04-26 21:43 | 24.93649 | 56.12721 | 10900 ft | 324 kts | 290° |
| 2026-04-26 21:43 | 24.94435 | 56.10404 | 10815 ft | 322 kts | 290° |
| 2026-04-26 21:43 | 24.95212 | 56.08106 | 10720 ft | 317 kts | 290° |
| 2026-04-26 21:43 | 24.95964 | 56.05879 | 10547 ft | 303 kts | 290° |
| 2026-04-26 21:44 | 24.96686 | 56.03746 | 10394 ft | 291 kts | 290° |
| 2026-04-26 21:44 | 24.97383 | 56.01683 | 10120 ft | 284 kts | 290° |
| 2026-04-26 21:44 | 24.98065 | 55.99663 | 9776 ft | 280 kts | 290° |
| 2026-04-26 21:44 | 24.98744 | 55.97657 | 9372 ft | 278 kts | 290° |
| 2026-04-26 21:45 | 24.99416 | 55.95670 | 9001 ft | 275 kts | 290° |
| 2026-04-26 21:45 | 25.00080 | 55.93705 | 8602 ft | 273 kts | 290° |
| 2026-04-26 21:45 | 25.00737 | 55.91754 | 8220 ft | 271 kts | 290° |
| 2026-04-26 21:45 | 25.01388 | 55.89815 | 7836 ft | 268 kts | 290° |
| 2026-04-26 21:46 | 25.02035 | 55.87894 | 7467 ft | 267 kts | 290° |
| 2026-04-26 21:46 | 25.02678 | 55.85987 | 7095 ft | 264 kts | 291° |
| 2026-04-26 21:46 | 25.03325 | 55.84078 | 6610 ft | 268 kts | 291° |
| 2026-04-26 21:46 | 25.03965 | 55.82172 | 6263 ft | 263 kts | 291° |
| 2026-04-26 21:47 | 25.04603 | 55.80279 | 5848 ft | 263 kts | 291° |
| 2026-04-26 21:47 | 25.05231 | 55.78410 | 5544 ft | 257 kts | 291° |
| 2026-04-26 21:47 | 25.05854 | 55.76560 | 5450 ft | 259 kts | 291° |
| 2026-04-26 21:47 | 25.06479 | 55.74696 | 5375 ft | 259 kts | 291° |
| 2026-04-26 21:48 | 25.07099 | 55.72847 | 5254 ft | 253 kts | 291° |
| 2026-04-26 21:48 | 25.07693 | 55.71074 | 5147 ft | 240 kts | 291° |
| 2026-04-26 21:48 | 25.08258 | 55.69382 | 5037 ft | 229 kts | 291° |
| 2026-04-26 21:48 | 25.08797 | 55.67772 | 4943 ft | 219 kts | 291° |
| 2026-04-26 21:49 | 25.09311 | 55.66240 | 4881 ft | 207 kts | 291° |
| 2026-04-26 21:49 | 25.09792 | 55.64803 | 4804 ft | 193 kts | 291° |
| 2026-04-26 21:49 | 25.10324 | 55.63504 | 4654 ft | 185 kts | 301° |
| 2026-04-26 21:49 | 25.11008 | 55.62295 | 4423 ft | 182 kts | 301° |
| 2026-04-26 21:50 | 25.11671 | 55.61123 | 4203 ft | 179 kts | 301° |
| 2026-04-26 21:50 | 25.12100 | 55.60351 | 4044 ft | 178 kts | 300° |
| 2026-04-26 21:50 | 25.12936 | 55.58807 | 3776 ft | 174 kts | 300° |
| 2026-04-26 21:50 | 25.13533 | 55.57670 | 3626 ft | 168 kts | 299° |
| 2026-04-26 21:51 | 25.14132 | 55.56561 | 3414 ft | 165 kts | 301° |
| 2026-04-26 21:51 | 25.14721 | 55.55511 | 3220 ft | 161 kts | 300° |
| 2026-04-26 21:51 | 25.15298 | 55.54477 | 3000 ft | 156 kts | 300° |
| 2026-04-26 21:51 | 25.15861 | 55.53462 | 2801 ft | 155 kts | 300° |
| 2026-04-26 21:52 | 25.16424 | 55.52447 | 2623 ft | 154 kts | 300° |
| 2026-04-26 21:52 | 25.16963 | 55.51471 | 2413 ft | 141 kts | 300° |
| 2026-04-26 21:52 | 25.17447 | 55.50594 | 2242 ft | 128 kts | 300° |
| 2026-04-26 21:52 | 25.17893 | 55.49785 | 2075 ft | 120 kts | 300° |
| 2026-04-26 21:53 | 25.18328 | 55.49001 | 1932 ft | 119 kts | 301° |
| 2026-04-26 21:53 | 25.18760 | 55.48225 | 1787 ft | 118 kts | 301° |
| 2026-04-26 21:53 | 25.19188 | 55.47457 | 1642 ft | 117 kts | 301° |
| 2026-04-26 21:53 | 25.19609 | 55.46697 | 1473 ft | 116 kts | 301° |
| 2026-04-26 21:54 | 25.20034 | 55.45930 | 1323 ft | 118 kts | 302° |
| 2026-04-26 21:54 | 25.20464 | 55.45151 | 1174 ft | 119 kts | 300° |
| 2026-04-26 21:54 | 25.20900 | 55.44364 | 1026 ft | 121 kts | 301° |
| 2026-04-26 21:54 | 25.21343 | 55.43568 | 880 ft | 123 kts | 301° |
| 2026-04-26 21:55 | 25.21798 | 55.42745 | 719 ft | 127 kts | 301° |
| 2026-04-26 21:55 | 25.22263 | 55.41899 | 578 ft | 131 kts | 300° |
| 2026-04-26 21:55 | 25.22733 | 55.41037 | 392 ft | 131 kts | 301° |
| 2026-04-26 21:55 | 25.23203 | 55.40183 | 216 ft | 130 kts | 301° |
| 2026-04-26 21:56 | 25.23665 | 55.39350 | 48 ft | 125 kts | 301° |
| 2026-04-26 21:56 | 25.24077 | 55.38610 | 28 ft | 88 kts | 301° |
| 2026-04-26 21:56 | 25.24281 | 55.38245 | 31 ft | 35 kts | 301° |
| 2026-04-26 21:56 | 25.24262 | 55.38093 | 28 ft | 18 kts | 213° |
| 2026-04-26 21:57 | 25.24217 | 55.37987 | 31 ft | 17 kts | 293° |
| 2026-04-26 21:57 | 25.24285 | 55.37867 | 30 ft | 20 kts | 303° |
| 2026-04-26 21:57 | 25.24338 | 55.37738 | 25 ft | 15 kts | 264° |
| 2026-04-26 21:57 | 25.24330 | 55.37622 | 27 ft | 17 kts | 281° |
| 2026-04-26 21:58 | 25.24386 | 55.37501 | 25 ft | 19 kts | 302° |
| 2026-04-26 21:58 | 25.24460 | 55.37372 | 25 ft | 20 kts | 303° |
| 2026-04-26 21:58 | 25.24492 | 55.37269 | 25 ft | 13 kts | 243° |
| 2026-04-26 21:58 | 25.24437 | 55.37222 | 25 ft | 3 kts | 210° |
| 2026-04-26 21:59 | 25.24428 | 55.37217 | 25 ft | 0 kts | 211° |